Time;durP1;ratioP1;P1;durP2;ratioP2;P2;SDS_P1;SDS_P2;PMS_P1;PMS_P2;Temp;Humidity;BMP_temperature;BMP_pressure;BME280_temperature;BME280_humidity;BME280_pressure;Samples;Min_cycle;Max_cycle;Signal;HPM_P1;HPM_P2
2021/12/07 00:01:46;;;;;;;11.90;10.60;;;;;;;-3.27;100.00;97471.13;4967950;28;20437;-76
2021/12/07 00:04:14;;;;;;;16.30;11.50;;;;;;;-3.23;100.00;97470.03;4957807;28;20449;-78
2021/12/07 00:06:43;;;;;;;11.70;10.60;;;;;;;-3.14;100.00;97464.28;4965405;28;20455;-77
2021/12/07 00:09:15;;;;;;;12.10;10.60;;;;;;;-3.27;100.00;97464.19;4961415;28;20460;-78
2021/12/07 00:11:44;;;;;;;15.00;11.40;;;;;;;-3.28;100.00;97459.09;4964237;28;20471;-77
2021/12/07 00:14:14;;;;;;;12.17;10.90;;;;;;;-3.25;100.00;97464.09;4944448;28;20476;-77
2021/12/07 00:16:45;;;;;;;12.30;10.10;;;;;;;-3.32;100.00;97458.44;4948334;28;20453;-77
2021/12/07 00:19:13;;;;;;;9.77;8.77;;;;;;;-3.12;100.00;97457.25;4971158;28;20477;-77
2021/12/07 00:21:42;;;;;;;10.80;9.70;;;;;;;-3.16;100.00;97457.53;4966197;28;21381;-77
2021/12/07 00:24:11;;;;;;;13.00;10.93;;;;;;;-3.23;100.00;97457.06;4961498;28;20500;-77
2021/12/07 00:26:42;;;;;;;12.90;11.27;;;;;;;-3.16;100.00;97452.38;4968161;28;20961;-77
2021/12/07 00:29:12;;;;;;;18.47;12.03;;;;;;;-3.23;100.00;97459.66;4958081;28;20478;-76
2021/12/07 00:31:48;;;;;;;14.57;10.40;;;;;;;-3.20;100.00;97455.13;4943678;28;20465;-77
2021/12/07 00:34:25;;;;;;;10.80;9.03;;;;;;;-3.14;100.00;97448.75;4961909;28;20455;-77
2021/12/07 00:36:53;;;;;;;16.10;10.67;;;;;;;-3.07;100.00;97441.44;4969259;28;20452;-79
2021/12/07 00:39:23;;;;;;;11.77;10.43;;;;;;;-3.01;100.00;97432.47;4961411;28;20486;-78
2021/12/07 00:41:54;;;;;;;12.73;11.30;;;;;;;-2.97;100.00;97429.56;4956801;28;20452;-79
2021/12/07 00:44:24;;;;;;;12.80;9.83;;;;;;;-3.03;100.00;97427.38;4968895;28;20764;-77
2021/12/07 00:46:52;;;;;;;11.83;10.10;;;;;;;-3.07;100.00;97410.31;4937216;28;20446;-78
2021/12/07 00:49:21;;;;;;;11.73;10.00;;;;;;;-3.13;100.00;97410.69;4965568;28;20473;-77
2021/12/07 00:51:49;;;;;;;13.30;11.70;;;;;;;-3.07;100.00;97402.56;4963937;28;20450;-78
2021/12/07 00:54:17;;;;;;;11.73;10.23;;;;;;;-2.99;100.00;97397.72;4962985;28;20468;-78
2021/12/07 00:56:45;;;;;;;11.23;10.13;;;;;;;-3.03;100.00;97387.63;4963092;28;20461;-77
2021/12/07 00:59:15;;;;;;;11.03;9.90;;;;;;;-3.09;100.00;97378.47;4971759;28;20484;-77
2021/12/07 01:01:44;;;;;;;12.90;10.70;;;;;;;-3.11;100.00;97372.56;4948726;28;20448;-77
2021/12/07 01:04:12;;;;;;;14.87;11.40;;;;;;;-3.05;100.00;97387.72;4962996;28;20460;-77
2021/12/07 01:06:59;;;;;;;12.90;10.73;;;;;;;-3.01;100.00;97391.81;4960864;28;20449;-77
2021/12/07 01:09:34;;;;;;;12.13;10.40;;;;;;;-3.07;100.00;97393.00;4966942;28;21038;-77
2021/12/07 01:26:07;;;;;;;12.00;10.37;;;;;;;-2.91;100.00;97408.44;4885876;29;20656;-78
2021/12/07 01:28:39;;;;;;;14.40;10.83;;;;;;;-2.88;100.00;97397.06;4942081;28;20471;-77
2021/12/07 01:31:16;;;;;;;14.13;12.53;;;;;;;-2.79;100.00;97396.50;4971871;28;20445;-80
2021/12/07 01:34:04;;;;;;;15.47;11.90;;;;;;;-2.73;100.00;97402.22;4940506;28;20456;-79
2021/12/07 01:36:52;;;;;;;17.97;12.33;;;;;;;-2.74;100.00;97405.75;4955691;28;21393;-77
2021/12/07 01:39:52;;;;;;;13.10;10.70;;;;;;;-2.66;100.00;97395.72;4972796;28;20480;-76
2021/12/07 01:45:47;;;;;;;13.10;10.87;;;;;;;-2.78;100.00;97372.22;4971563;28;20465;-77
2021/12/07 01:49:45;;;;;;;17.37;11.50;;;;;;;-2.78;100.00;97353.25;4956377;28;20819;-77
2021/12/07 01:51:17;;;;;;;13.00;11.20;;;;;;;-2.65;100.00;97348.13;4943530;28;20517;-77
2021/12/07 01:59:35;;;;;;;18.03;12.07;;;;;;;-2.66;100.00;97336.91;4956850;28;20243;-78
2021/12/07 02:02:05;;;;;;;17.37;11.83;;;;;;;-2.59;100.00;97323.53;4972117;28;20436;-75
2021/12/07 02:04:35;;;;;;;16.90;12.10;;;;;;;-2.53;100.00;97328.34;4972448;28;20444;-77
2021/12/07 02:07:03;;;;;;;12.57;10.73;;;;;;;-2.52;100.00;97319.63;4941407;28;20460;-76
2021/12/07 02:09:33;;;;;;;17.00;12.10;;;;;;;-2.48;100.00;97327.13;4973365;28;20460;-77
2021/12/07 02:12:02;;;;;;;16.97;13.17;;;;;;;-2.32;100.00;97328.72;4959291;28;20468;-76
2021/12/07 02:14:30;;;;;;;14.33;11.97;;;;;;;-2.39;100.00;97330.03;4963039;28;20460;-77
2021/12/07 02:17:01;;;;;;;13.43;11.53;;;;;;;-2.40;100.00;97330.97;4975508;28;20492;-78
2021/12/07 02:19:29;;;;;;;12.20;10.57;;;;;;;-2.34;100.00;97331.44;4960966;28;20658;-77
2021/12/07 02:21:59;;;;;;;13.83;10.77;;;;;;;-2.35;100.00;97328.91;4943715;28;20450;-77
2021/12/07 02:24:28;;;;;;;13.83;11.77;;;;;;;-2.21;100.00;97325.44;4954903;28;20449;-77
2021/12/07 02:26:57;;;;;;;13.47;11.93;;;;;;;-2.27;100.00;97334.47;4977691;28;20443;-77
2021/12/07 02:29:26;;;;;;;14.17;12.67;;;;;;;-2.18;100.00;97335.59;4944990;28;20229;-75
2021/12/07 02:31:55;;;;;;;16.73;12.50;;;;;;;-2.23;100.00;97330.72;4965267;28;20217;-75
2021/12/07 02:34:24;;;;;;;14.33;12.37;;;;;;;-2.22;100.00;97331.56;4974011;28;20449;-77
2021/12/07 02:36:54;;;;;;;13.90;12.20;;;;;;;-2.16;100.00;97335.53;4936673;28;21081;-76
2021/12/07 02:39:31;;;;;;;13.17;11.73;;;;;;;-2.11;100.00;97334.25;4964963;28;20457;-76
2021/12/07 02:41:59;;;;;;;15.83;12.10;;;;;;;-2.11;100.00;97336.88;4972852;28;20956;-77
2021/12/07 02:44:27;;;;;;;14.60;12.47;;;;;;;-2.03;100.00;97341.56;4963916;28;20468;-76
2021/12/07 02:46:55;;;;;;;16.57;12.50;;;;;;;-2.00;100.00;97343.13;4965797;28;20472;-77
2021/12/07 02:49:23;;;;;;;15.67;12.60;;;;;;;-2.04;100.00;97345.09;4973466;28;20342;-76
2021/12/07 02:51:51;;;;;;;14.23;12.33;;;;;;;-1.98;100.00;97344.69;4960877;28;20452;-77
2021/12/07 02:54:20;;;;;;;17.07;12.13;;;;;;;-1.95;100.00;97344.47;4940782;28;20453;-77
2021/12/07 02:56:51;;;;;;;13.50;12.07;;;;;;;-2.02;100.00;97350.19;4961270;28;20371;-76
2021/12/07 02:59:20;;;;;;;15.73;12.33;;;;;;;-2.00;100.00;97349.16;4948950;28;20250;-76
2021/12/07 03:01:57;;;;;;;14.30;12.00;;;;;;;-1.94;100.00;97338.34;4966079;28;20519;-76
2021/12/07 03:04:31;;;;;;;12.50;10.87;;;;;;;-1.96;100.00;97340.22;4958967;28;20217;-77
2021/12/07 03:07:07;;;;;;;14.40;11.47;;;;;;;-1.95;100.00;97339.28;4975242;28;20445;-72
2021/12/07 03:26:14;;;;;;;17.10;13.10;;;;;;;-1.87;100.00;97319.78;4942964;28;20456;-77
2021/12/07 03:28:45;;;;;;;14.93;12.57;;;;;;;-1.84;100.00;97324.78;4943658;28;20552;-77
2021/12/07 03:31:15;;;;;;;15.53;12.63;;;;;;;-1.85;100.00;97323.13;4976771;28;20209;-77
2021/12/07 03:33:43;;;;;;;16.03;11.43;;;;;;;-1.79;100.00;97322.69;4951552;28;20856;-79
2021/12/07 03:36:13;;;;;;;15.90;12.83;;;;;;;-1.79;100.00;97330.50;4976433;28;20492;-77
2021/12/07 03:38:42;;;;;;;15.17;12.63;;;;;;;-1.77;100.00;97319.03;4958559;28;21026;-79
2021/12/07 03:41:11;;;;;;;17.97;13.27;;;;;;;-1.74;100.00;97315.41;4939128;28;20225;-77
2021/12/07 03:43:40;;;;;;;16.50;13.07;;;;;;;-1.69;100.00;97322.91;4965045;28;20578;-75
2021/12/07 03:46:09;;;;;;;16.83;12.90;;;;;;;-1.65;100.00;97306.19;4960274;28;20452;-77
2021/12/07 03:48:37;;;;;;;17.50;13.67;;;;;;;-1.68;100.00;97293.41;4958456;28;20778;-78
2021/12/07 03:51:06;;;;;;;17.37;14.03;;;;;;;-1.56;100.00;97295.16;4960942;28;20449;-79
2021/12/07 03:53:35;;;;;;;18.50;13.63;;;;;;;-1.52;100.00;97294.00;4964718;28;20456;-77
2021/12/07 03:56:05;;;;;;;19.47;14.60;;;;;;;-1.49;100.00;97283.41;4941561;28;20475;-77
2021/12/07 03:58:34;;;;;;;19.03;13.83;;;;;;;-1.53;100.00;97289.75;4951967;28;21012;-78
2021/12/07 04:01:02;;;;;;;19.70;15.07;;;;;;;-1.53;100.00;97292.34;4957788;28;20474;-77
2021/12/07 04:03:34;;;;;;;18.53;13.60;;;;;;;-1.47;100.00;97293.69;4954791;28;20484;-78
2021/12/07 04:06:06;;;;;;;22.63;15.07;;;;;;;-1.51;100.00;97305.25;4973638;28;20485;-77
2021/12/07 04:08:37;;;;;;;17.37;14.73;;;;;;;-1.55;100.00;97306.34;4956054;28;20818;-78
2021/12/07 04:11:05;;;;;;;20.33;14.90;;;;;;;-1.42;100.00;97304.59;4940998;28;20453;-78
2021/12/07 04:13:33;;;;;;;17.27;14.20;;;;;;;-1.44;100.00;97285.69;4968327;28;20475;-79
2021/12/07 04:16:02;;;;;;;18.37;14.47;;;;;;;-1.40;100.00;97294.09;4957930;28;20869;-77
2021/12/07 04:18:32;;;;;;;21.27;15.17;;;;;;;-1.55;100.00;97320.19;4958454;28;20499;-78
2021/12/07 04:21:01;;;;;;;18.73;15.33;;;;;;;-1.61;100.00;97326.63;4959709;28;20216;-77
2021/12/07 04:23:29;;;;;;;19.60;14.67;;;;;;;-1.49;100.00;97319.78;4968058;28;20453;-77
2021/12/07 04:25:58;;;;;;;16.37;13.43;;;;;;;-1.45;100.00;97310.00;4974224;28;20964;-76
2021/12/07 04:28:26;;;;;;;21.73;14.97;;;;;;;-1.34;100.00;97310.09;4927024;28;20464;-79
2021/12/07 04:30:54;;;;;;;21.13;14.70;;;;;;;-1.35;100.00;97298.03;4965991;28;20730;-77
2021/12/07 04:33:22;;;;;;;23.13;14.87;;;;;;;-1.39;100.00;97301.78;4939626;28;20454;-79
2021/12/07 04:35:52;;;;;;;19.87;15.20;;;;;;;-1.44;100.00;97323.81;4969997;28;20451;-77
2021/12/07 04:38:20;;;;;;;18.67;14.50;;;;;;;-1.28;100.00;97327.06;4967023;28;20515;-79
2021/12/07 04:40:50;;;;;;;21.40;15.30;;;;;;;-1.39;100.00;97317.38;4955823;28;20487;-79
2021/12/07 04:43:19;;;;;;;17.63;14.37;;;;;;;-1.42;100.00;97321.94;4922039;28;20453;-77
2021/12/07 04:45:59;;;;;;;18.53;14.53;;;;;;;-1.39;100.00;97308.75;4953089;28;20206;-77
2021/12/07 04:59:31;;;;;;;19.77;13.80;;;;;;;-1.37;100.00;97312.91;4932404;28;20476;-77
2021/12/07 05:01:59;;;;;;;19.80;13.73;;;;;;;-1.25;100.00;97308.63;4968256;28;20788;-78
2021/12/07 05:04:30;;;;;;;18.30;13.60;;;;;;;-1.34;100.00;97310.09;4941373;28;20209;-79
2021/12/07 05:07:07;;;;;;;20.13;14.80;;;;;;;-1.19;100.00;97308.19;4970408;28;20452;-76
2021/12/07 05:12:27;;;;;;;20.40;13.67;;;;;;;-1.26;100.00;97309.56;4966573;28;20213;-78
2021/12/07 05:15:03;;;;;;;15.30;13.17;;;;;;;-1.26;100.00;97308.72;4927541;28;20913;-78
2021/12/07 05:18:00;;;;;;;20.80;15.57;;;;;;;-1.17;100.00;97311.53;4966671;28;20664;-76
2021/12/07 05:34:30;;;;;;;17.60;14.47;;;;;;;-1.06;100.00;97315.13;4975313;28;20445;-77
2021/12/07 05:34:46;;;;;;;24.73;19.90;;;;;;;-1.11;100.00;97312.88;4948620;28;21768;-73
2021/12/07 05:40:04;;;;;;;15.83;14.23;;;;;;;-1.09;100.00;97312.75;4958426;28;20462;-69
2021/12/07 05:42:32;;;;;;;17.77;13.33;;;;;;;-1.13;100.00;97319.97;4972059;28;20676;-71
2021/12/07 05:45:01;;;;;;;14.53;12.03;;;;;;;-1.14;100.00;97309.66;4941856;28;20594;-72
2021/12/07 05:47:29;;;;;;;13.53;11.50;;;;;;;-1.20;100.00;97319.53;4964179;28;20978;-70
2021/12/07 05:49:57;;;;;;;14.47;11.77;;;;;;;-1.21;100.00;97320.47;4978897;28;20209;-71
2021/12/07 05:52:25;;;;;;;14.80;11.93;;;;;;;-1.19;100.00;97330.75;4945117;28;21202;-69
2021/12/07 05:54:53;;;;;;;12.83;10.27;;;;;;;-1.16;100.00;97327.94;4974827;28;20444;-72
2021/12/07 05:57:22;;;;;;;10.20;8.53;;;;;;;-1.11;100.00;97333.69;4974889;28;20240;-70
2021/12/07 05:59:50;;;;;;;9.43;8.43;;;;;;;-0.94;100.00;97332.50;4971598;28;20230;-70
2021/12/07 06:02:18;;;;;;;7.20;6.50;;;;;;;-0.87;100.00;97330.28;4940734;28;20460;-74
2021/12/07 06:04:46;;;;;;;7.70;7.00;;;;;;;-0.94;100.00;97342.06;4972697;28;20222;-75
2021/12/07 06:07:14;;;;;;;6.23;5.73;;;;;;;-0.83;100.00;97341.31;4958800;28;20217;-74
2021/12/07 06:09:43;;;;;;;5.40;4.90;;;;;;;-0.76;100.00;97343.38;4962616;28;20665;-74
2021/12/07 06:12:11;;;;;;;6.27;5.07;;;;;;;-0.55;100.00;97349.78;4972443;28;20209;-75
2021/12/07 06:14:43;;;;;;;5.63;4.37;;;;;;;-0.59;100.00;97346.53;4969162;28;20789;-75
2021/12/07 06:17:12;;;;;;;5.03;4.63;;;;;;;-0.45;100.00;97345.56;4939832;28;21044;-74
2021/12/07 06:19:41;;;;;;;4.47;4.07;;;;;;;-0.43;100.00;97348.88;4966993;28;20479;-75
2021/12/07 06:22:09;;;;;;;33.23;18.63;;;;;;;-0.25;100.00;97349.31;4961791;28;20235;-75
2021/12/07 06:24:37;;;;;;;20.87;12.87;;;;;;;-0.36;100.00;97357.09;4955676;28;20290;-75
2021/12/07 06:27:05;;;;;;;3.87;3.67;;;;;;;-0.21;100.00;97347.31;4971352;28;20449;-74
2021/12/07 06:29:33;;;;;;;5.27;4.80;;;;;;;-0.25;100.00;97356.28;4953386;28;20484;-75
2021/12/07 06:32:03;;;;;;;39.37;25.20;;;;;;;-0.20;100.00;97348.97;4941680;28;20415;-74
2021/12/07 06:34:31;;;;;;;45.33;31.27;;;;;;;-0.20;100.00;97343.75;4952172;28;20217;-75
2021/12/07 06:36:59;;;;;;;5.53;5.03;;;;;;;-0.21;100.00;97350.75;4964289;28;20668;-76
2021/12/07 06:39:27;;;;;;;4.00;3.70;;;;;;;-0.04;100.00;97352.13;4962380;28;20500;-75
2021/12/07 06:41:55;;;;;;;13.77;12.53;;;;;;;-0.03;100.00;97355.53;4960398;28;20480;-75
2021/12/07 06:44:24;;;;;;;4.10;3.80;;;;;;;-0.04;100.00;97352.13;4961300;28;20217;-74
2021/12/07 06:46:52;;;;;;;3.80;3.60;;;;;;;-0.04;100.00;97357.34;4941820;28;20453;-75
2021/12/07 06:49:22;;;;;;;4.83;4.43;;;;;;;-0.04;100.00;97356.47;4967644;28;20469;-75
2021/12/07 06:51:51;;;;;;;5.10;4.80;;;;;;;0.02;100.00;97358.66;4972019;28;20310;-76
2021/12/07 06:54:28;;;;;;;4.87;4.53;;;;;;;0.12;100.00;97359.63;4957853;28;20224;-76
2021/12/07 06:56:56;;;;;;;7.30;6.67;;;;;;;0.08;100.00;97362.56;4975015;28;20985;-77
2021/12/07 06:59:24;;;;;;;5.53;5.03;;;;;;;0.02;100.00;97363.88;4949153;28;20496;-75
2021/12/07 07:01:52;;;;;;;4.00;3.80;;;;;;;0.02;100.00;97378.66;4955208;28;20453;-74
2021/12/07 07:04:22;;;;;;;3.83;3.53;;;;;;;0.05;100.00;97381.03;4923910;28;20912;-75
2021/12/07 07:06:51;;;;;;;5.23;4.00;;;;;;;0.09;100.00;97387.69;4963721;28;20461;-77
2021/12/07 07:09:18;;;;;;;4.27;3.97;;;;;;;0.03;100.00;97388.13;4958753;28;20371;-74
2021/12/07 07:11:47;;;;;;;5.23;3.80;;;;;;;0.09;100.00;97395.50;4961560;28;20449;-74
2021/12/07 07:14:16;;;;;;;7.27;4.10;;;;;;;0.11;100.00;97402.28;4970599;28;20533;-73
2021/12/07 07:16:44;;;;;;;5.50;4.10;;;;;;;0.10;100.00;97408.44;4950608;28;20453;-77
2021/12/07 07:19:12;;;;;;;7.73;3.63;;;;;;;0.18;100.00;97410.44;4940739;28;20492;-74
2021/12/07 07:21:41;;;;;;;5.30;3.63;;;;;;;0.16;100.00;97411.53;4958940;28;20206;-76
2021/12/07 07:24:09;;;;;;;4.20;3.90;;;;;;;0.21;100.00;97417.22;4956500;28;20248;-76
2021/12/07 07:26:39;;;;;;;3.80;3.50;;;;;;;0.20;100.00;97428.59;4962691;28;20758;-76
2021/12/07 07:29:07;;;;;;;4.60;4.30;;;;;;;0.26;100.00;97434.19;4953491;28;20646;-75
2021/12/07 07:31:36;;;;;;;5.73;4.10;;;;;;;0.30;100.00;97437.38;4961039;28;20657;-75
2021/12/07 07:34:06;;;;;;;3.33;3.13;;;;;;;0.27;100.00;97435.84;4966055;28;20212;-74
2021/12/07 07:36:34;;;;;;;4.50;4.20;;;;;;;0.33;100.00;97442.38;4945273;28;20445;-77
2021/12/07 07:39:04;;;;;;;4.03;3.73;;;;;;;0.36;100.00;97441.31;4958957;28;20495;-76
2021/12/07 07:41:32;;;;;;;4.77;4.07;;;;;;;0.36;100.00;97449.97;4955849;28;20849;-75
2021/12/07 07:44:00;;;;;;;3.87;3.57;;;;;;;0.42;100.00;97444.31;4970435;28;20217;-75
2021/12/07 07:46:28;;;;;;;5.23;3.70;;;;;;;0.47;100.00;97446.56;4942623;28;20646;-75
2021/12/07 07:48:56;;;;;;;3.33;3.13;;;;;;;0.51;100.00;97455.00;4970447;28;20669;-75
2021/12/07 07:51:25;;;;;;;3.43;3.13;;;;;;;0.56;100.00;97458.91;4939495;28;21204;-73
2021/12/07 07:53:54;;;;;;;4.27;4.07;;;;;;;0.53;100.00;97453.13;4959354;28;20228;-77
2021/12/07 07:56:23;;;;;;;3.53;3.10;;;;;;;0.59;100.00;97457.88;4956419;28;20229;-75
2021/12/07 07:58:51;;;;;;;3.47;3.27;;;;;;;0.54;100.00;97463.41;4965059;28;20385;-75
2021/12/07 08:01:19;;;;;;;3.27;2.90;;;;;;;0.48;100.00;97466.47;4958354;28;20212;-74
2021/12/07 08:03:48;;;;;;;3.80;3.50;;;;;;;0.50;100.00;97467.19;4975741;28;20454;-74
2021/12/07 08:06:16;;;;;;;5.37;3.60;;;;;;;0.63;100.00;97479.34;4924794;28;20663;-75
2021/12/07 08:08:44;;;;;;;3.17;2.93;;;;;;;0.67;100.00;97478.16;4956264;28;20436;-74
2021/12/07 08:11:13;;;;;;;6.17;5.17;;;;;;;0.79;100.00;97481.66;4953986;28;20217;-76
2021/12/07 08:13:44;;;;;;;6.30;5.20;;;;;;;0.85;100.00;97474.16;4967753;28;20205;-74
2021/12/07 08:16:17;;;;;;;5.53;3.67;;;;;;;0.85;100.00;97476.78;4961469;28;20256;-75
2021/12/07 08:18:46;;;;;;;3.60;3.30;;;;;;;0.88;100.00;97467.06;4960131;28;20245;-76
2021/12/07 08:21:16;;;;;;;5.00;3.50;;;;;;;0.96;100.00;97486.41;4951546;28;20237;-75
2021/12/07 08:23:45;;;;;;;4.63;3.17;;;;;;;1.04;100.00;97480.63;4950584;28;20237;-74
2021/12/07 08:26:16;;;;;;;2.97;2.77;;;;;;;1.18;100.00;97473.50;4959864;28;20668;-73
2021/12/07 08:28:50;;;;;;;3.60;3.20;;;;;;;1.19;100.00;97476.00;4943254;28;20237;-74
2021/12/07 08:31:19;;;;;;;5.90;5.37;;;;;;;1.34;100.00;97484.44;4967866;28;20680;-74
2021/12/07 08:33:47;;;;;;;3.17;2.90;;;;;;;1.42;100.00;97489.06;4962352;28;20272;-74
2021/12/07 08:36:16;;;;;;;4.37;3.53;;;;;;;1.37;100.00;97486.81;4955184;28;20231;-74
2021/12/07 08:38:44;;;;;;;4.33;3.50;;;;;;;1.40;100.00;97486.59;4937193;28;20273;-71
2021/12/07 08:41:14;;;;;;;3.20;3.00;;;;;;;1.44;100.00;97482.78;4938433;28;20222;-73
2021/12/07 08:43:42;;;;;;;3.17;2.97;;;;;;;1.44;100.00;97487.16;4963345;28;20587;-74
2021/12/07 08:46:13;;;;;;;3.67;3.33;;;;;;;1.35;100.00;97482.66;4966311;28;20246;-74
2021/12/07 08:48:42;;;;;;;3.57;3.27;;;;;;;1.34;100.00;97489.69;4953332;28;20572;-71
2021/12/07 08:51:12;;;;;;;3.63;2.73;;;;;;;1.41;100.00;97479.56;4969786;28;20225;-71
2021/12/07 08:53:47;;;;;;;3.73;3.53;;;;;;;1.26;100.00;97485.03;4923973;28;21190;-74
2021/12/07 09:01:49;;;;;;;2.63;2.43;;;;;;;1.17;100.00;97493.56;4958720;28;20769;-74
2021/12/07 09:04:20;;;;;;;4.37;3.70;;;;;;;1.21;100.00;97505.44;4954249;28;20220;-74
2021/12/07 09:06:48;;;;;;;3.00;2.80;;;;;;;1.19;100.00;97509.94;4945658;28;20218;-74
2021/12/07 09:09:17;;;;;;;4.77;3.07;;;;;;;1.27;100.00;97514.56;4921593;28;21020;-75
2021/12/07 09:11:46;;;;;;;2.73;2.53;;;;;;;1.23;100.00;97518.34;4960773;28;20678;-73
2021/12/07 09:14:15;;;;;;;3.83;3.37;;;;;;;1.26;100.00;97512.91;4966621;28;20375;-75
2021/12/07 09:16:44;;;;;;;4.37;2.93;;;;;;;1.25;100.00;97514.69;4955094;28;20296;-74
2021/12/07 09:19:14;;;;;;;3.90;3.70;;;;;;;1.27;100.00;97519.78;4970299;28;20260;-75
2021/12/07 09:21:43;;;;;;;2.83;2.67;;;;;;;1.22;100.00;97524.53;4959735;28;20221;-73
2021/12/07 09:24:11;;;;;;;4.53;3.37;;;;;;;1.24;100.00;97530.47;4971262;28;20435;-73
2021/12/07 09:26:39;;;;;;;3.63;3.13;;;;;;;1.22;100.00;97532.38;4936834;28;20681;-73
2021/12/07 09:29:08;;;;;;;3.33;2.97;;;;;;;1.29;100.00;97526.56;4959463;28;20407;-73
2021/12/07 09:31:36;;;;;;;3.83;3.30;;;;;;;1.40;100.00;97525.75;4953774;28;20494;-72
2021/12/07 09:34:06;;;;;;;3.70;3.40;;;;;;;1.48;100.00;97534.78;4955088;28;20394;-74
2021/12/07 09:36:36;;;;;;;7.47;3.60;;;;;;;1.59;100.00;97532.16;4961152;28;20224;-74
2021/12/07 09:39:05;;;;;;;6.93;3.40;;;;;;;1.65;100.00;97536.09;4954482;28;21508;-74
2021/12/07 09:41:33;;;;;;;3.80;3.47;;;;;;;1.75;100.00;97531.78;4937334;28;20214;-74
2021/12/07 09:44:01;;;;;;;3.27;2.90;;;;;;;1.84;100.00;97533.69;4964052;28;20831;-74
2021/12/07 09:46:29;;;;;;;4.33;2.90;;;;;;;1.85;100.00;97537.97;4953528;28;20202;-74
2021/12/07 09:48:57;;;;;;;4.20;3.33;;;;;;;1.93;100.00;97528.72;4965081;28;20225;-74
2021/12/07 09:51:27;;;;;;;2.87;2.67;;;;;;;1.84;100.00;97536.28;4957303;28;20214;-75
2021/12/07 09:53:58;;;;;;;3.10;2.90;;;;;;;1.91;100.00;97536.66;4966731;28;20634;-74
2021/12/07 09:56:26;;;;;;;3.33;2.70;;;;;;;2.02;100.00;97533.22;4944423;28;20591;-75
2021/12/07 09:58:56;;;;;;;3.87;3.40;;;;;;;2.04;100.00;97531.28;4949489;28;20233;-72
2021/12/07 10:01:25;;;;;;;3.40;3.10;;;;;;;2.13;100.00;97535.78;4958703;28;20224;-74
2021/12/07 10:03:54;;;;;;;2.47;2.37;;;;;;;2.17;100.00;97523.31;4967254;28;20237;-78
2021/12/07 10:06:22;;;;;;;4.10;2.87;;;;;;;2.19;100.00;97533.63;4973542;28;20210;-75
2021/12/07 10:08:51;;;;;;;3.43;2.60;;;;;;;2.18;100.00;97522.38;4959535;28;20238;-76
2021/12/07 10:11:20;;;;;;;3.20;3.00;;;;;;;2.08;100.00;97529.25;4968219;28;20720;-73
2021/12/07 10:13:51;;;;;;;2.87;2.60;;;;;;;2.20;100.00;97527.44;4925538;28;20206;-73
2021/12/07 10:16:20;;;;;;;5.27;2.90;;;;;;;2.18;100.00;97543.28;4957502;28;20210;-75
2021/12/07 10:18:49;;;;;;;4.73;3.33;;;;;;;2.16;100.00;97546.00;4968730;28;20780;-74
2021/12/07 10:21:23;;;;;;;3.80;3.50;;;;;;;2.17;100.00;97542.44;4959964;28;20234;-76
2021/12/07 10:23:54;;;;;;;3.07;2.77;;;;;;;2.13;100.00;97540.19;4963685;28;20567;-73
2021/12/07 10:26:25;;;;;;;3.50;2.90;;;;;;;2.08;100.00;97542.31;4955455;28;20225;-77
2021/12/07 10:28:54;;;;;;;3.10;2.67;;;;;;;2.10;100.00;97543.06;4937372;28;20226;-73
2021/12/07 10:31:29;;;;;;;3.13;2.67;;;;;;;2.05;100.00;97543.41;4971967;28;20214;-75
2021/12/07 10:34:00;;;;;;;3.70;2.50;;;;;;;2.19;100.00;97563.25;4952178;28;20687;-76
2021/12/07 10:36:30;;;;;;;3.23;2.60;;;;;;;2.11;100.00;97548.16;4976217;28;20578;-76
2021/12/07 10:39:02;;;;;;;4.40;2.97;;;;;;;2.06;100.00;97545.06;4958300;28;20244;-76
2021/12/07 10:41:35;;;;;;;3.17;2.30;;;;;;;2.15;100.00;97538.28;4975702;28;20340;-74
2021/12/07 10:44:07;;;;;;;3.10;2.53;;;;;;;2.32;100.00;97534.34;4927355;28;23424;-75
2021/12/07 10:46:56;;;;;;;2.90;2.70;;;;;;;2.42;100.00;97540.47;4970876;28;20864;-74
2021/12/07 10:49:39;;;;;;;2.90;2.60;;;;;;;2.53;100.00;97533.53;4958183;28;20230;-75
2021/12/07 10:52:26;;;;;;;3.33;3.03;;;;;;;2.34;100.00;97532.44;4958910;28;20201;-76
2021/12/07 10:55:09;;;;;;;6.60;4.00;;;;;;;2.33;100.00;97551.69;4959519;28;20401;-76
2021/12/07 10:57:41;;;;;;;4.17;2.57;;;;;;;2.38;100.00;97543.44;4955563;28;20206;-76
2021/12/07 11:00:17;;;;;;;2.43;2.33;;;;;;;2.43;100.00;97546.53;4954273;28;20511;-74
2021/12/07 11:02:47;;;;;;;3.40;3.10;;;;;;;2.31;100.00;97549.19;4947871;28;20221;-74
2021/12/07 11:05:19;;;;;;;3.13;2.77;;;;;;;2.51;100.00;97543.31;4967244;28;20760;-75
2021/12/07 11:07:47;;;;;;;5.80;3.03;;;;;;;2.64;100.00;97549.19;4961904;28;20755;-74
2021/12/07 11:10:20;;;;;;;4.30;3.23;;;;;;;2.92;100.00;97559.22;4957615;28;20214;-73
2021/12/07 11:12:58;;;;;;;10.20;3.67;;;;;;;2.81;100.00;97555.66;4971149;28;20297;-75
2021/12/07 11:15:28;;;;;;;3.63;2.90;;;;;;;2.99;100.00;97558.56;4939830;28;20710;-75
2021/12/07 11:18:00;;;;;;;4.00;3.33;;;;;;;2.88;100.00;97556.84;4966996;28;20788;-75
2021/12/07 11:20:29;;;;;;;2.37;2.10;;;;;;;2.85;100.00;97551.03;4944900;28;20226;-75
2021/12/07 11:23:01;;;;;;;4.07;2.53;;;;;;;2.73;100.00;97548.47;4968383;28;20202;-71
2021/12/07 11:25:53;;;;;;;4.57;2.90;;;;;;;2.64;100.00;97551.81;4964661;28;20205;-74
2021/12/07 11:31:13;;;;;;;2.53;2.27;;;;;;;2.45;100.00;97555.91;4937424;28;20599;-75
2021/12/07 11:33:42;;;;;;;2.87;2.67;;;;;;;2.43;100.00;97551.75;4949733;28;20706;-75
2021/12/07 11:36:22;;;;;;;3.17;2.33;;;;;;;2.29;100.00;97564.16;4961448;28;20213;-75
2021/12/07 11:38:51;;;;;;;5.47;3.37;;;;;;;2.25;100.00;97572.34;4960049;28;20229;-75
2021/12/07 11:41:21;;;;;;;3.93;3.37;;;;;;;2.26;100.00;97561.78;4961039;28;20236;-75
2021/12/07 11:43:54;;;;;;;3.83;2.73;;;;;;;2.25;100.00;97557.53;4961833;28;20210;-76
2021/12/07 11:46:22;;;;;;;3.90;3.43;;;;;;;2.21;100.00;97563.09;4937275;28;20217;-75
2021/12/07 11:49:05;;;;;;;5.13;3.77;;;;;;;2.28;100.00;97557.28;4968130;28;20217;-76
2021/12/07 11:51:33;;;;;;;3.73;2.80;;;;;;;2.22;100.00;97549.06;4957125;28;20213;-76
2021/12/07 11:54:01;;;;;;;3.03;2.60;;;;;;;2.28;100.00;97556.47;4966384;28;20679;-74
2021/12/07 11:56:29;;;;;;;3.90;2.97;;;;;;;2.27;100.00;97573.91;4959267;28;20213;-76
2021/12/07 11:58:58;;;;;;;3.37;3.07;;;;;;;2.25;100.00;97573.22;4966138;28;20748;-74
2021/12/07 12:01:42;;;;;;;4.43;2.50;;;;;;;2.20;100.00;97564.91;4937307;28;20734;-76
2021/12/07 12:04:11;;;;;;;3.67;2.73;;;;;;;2.22;100.00;97570.00;4958890;28;20303;-76
2021/12/07 12:06:41;;;;;;;2.80;2.60;;;;;;;2.20;100.00;97564.06;4957279;28;20612;-76
2021/12/07 12:09:10;;;;;;;4.20;3.00;;;;;;;2.24;100.00;97566.31;4955286;28;20240;-75
2021/12/07 12:11:43;;;;;;;5.97;3.20;;;;;;;2.28;100.00;97572.16;4973782;28;20213;-75
2021/12/07 12:14:27;;;;;;;3.57;2.60;;;;;;;2.19;100.00;97565.00;4949124;28;20214;-75
2021/12/07 12:17:03;;;;;;;3.53;3.07;;;;;;;2.22;100.00;97577.84;4940634;28;20237;-76
2021/12/07 12:19:33;;;;;;;5.93;4.77;;;;;;;2.21;100.00;97563.09;4969096;28;20228;-74
2021/12/07 12:22:08;;;;;;;7.30;3.30;;;;;;;2.23;100.00;97556.81;4940488;28;20419;-77
2021/12/07 12:24:39;;;;;;;5.47;2.90;;;;;;;2.28;100.00;97548.63;4970431;28;20213;-77
2021/12/07 12:27:10;;;;;;;2.80;2.60;;;;;;;2.20;100.00;97557.06;4953716;28;20418;-77
2021/12/07 12:29:41;;;;;;;3.70;3.30;;;;;;;2.19;100.00;97565.00;4972587;28;20614;-77
2021/12/07 12:32:09;;;;;;;2.50;2.40;;;;;;;2.30;100.00;97563.22;4939875;28;20946;-76
2021/12/07 12:34:39;;;;;;;3.47;3.27;;;;;;;2.31;100.00;97566.66;4967391;28;20219;-75
2021/12/07 12:37:10;;;;;;;6.40;3.20;;;;;;;2.34;100.00;97562.97;4957268;28;20521;-76
2021/12/07 12:39:59;;;;;;;3.93;2.70;;;;;;;2.35;100.00;97556.78;4959168;28;20645;-77
2021/12/07 12:42:36;;;;;;;2.23;2.10;;;;;;;2.35;100.00;97549.78;4968337;28;20233;-77
2021/12/07 12:45:18;;;;;;;3.47;2.40;;;;;;;2.41;100.00;97558.91;4953813;28;20210;-76
2021/12/07 12:47:47;;;;;;;4.30;2.90;;;;;;;2.42;100.00;97560.56;4939916;28;20615;-75
2021/12/07 12:50:19;;;;;;;2.47;2.30;;;;;;;2.51;100.00;97561.59;4955209;28;20825;-75
2021/12/07 12:52:50;;;;;;;3.60;2.77;;;;;;;2.57;100.00;97548.03;4953185;28;20210;-75
2021/12/07 12:55:28;;;;;;;4.77;2.33;;;;;;;2.70;100.00;97545.25;4968596;28;20205;-76